Time;durP1;ratioP1;P1;durP2;ratioP2;P2;SDS_P1;SDS_P2;PMS_P1;PMS_P2;Temp;Humidity;BMP_temperature;BMP_pressure;BME280_temperature;BME280_humidity;BME280_pressure;Samples;Min_cycle;Max_cycle;Signal;HPM_P1;HPM_P2
2023/07/08 00:00:15;;;;;;;23.47;21.97;;;;;;;;;;5095908;28;20468;-81
2023/07/08 00:02:43;;;;;;;23.57;22.17;;;;;;;;;;5096362;28;20426;-84
2023/07/08 00:05:11;;;;;;;22.97;21.77;;;;;;;;;;5095694;28;20507;-83
2023/07/08 00:07:38;;;;;;;23.90;22.60;;;;;;;;;;5095302;28;20808;-82
2023/07/08 00:10:12;;;;;;;23.60;22.30;;;;;;;;;;5097195;28;20847;-82
2023/07/08 00:12:39;;;;;;;23.77;22.13;;;;;;;;;;5114816;28;20447;-83
2023/07/08 00:15:06;;;;;;;22.83;21.63;;;;;;;;;;5114114;28;20492;-82
2023/07/08 00:17:33;;;;;;;24.10;22.37;;;;;;;;;;5109605;28;20510;-84
2023/07/08 00:20:02;;;;;;;24.67;23.00;;;;;;;;;;5096611;28;20959;-84
2023/07/08 00:22:29;;;;;;;24.17;22.87;;;;;;;;;;5096400;28;20449;-84
2023/07/08 00:24:56;;;;;;;23.20;21.80;;;;;;;;;;5096723;28;20465;-84
2023/07/08 00:27:23;;;;;;;23.50;22.20;;;;;;;;;;5095756;28;20408;-84
2023/07/08 00:29:50;;;;;;;22.90;21.60;;;;;;;;;;5096264;28;20904;-84
2023/07/08 00:32:17;;;;;;;23.60;22.30;;;;;;;;;;5096174;28;20475;-84
2023/07/08 00:34:44;;;;;;;24.00;22.70;;;;;;;;;;5095552;28;20523;-84
2023/07/08 00:37:14;;;;;;;22.97;21.50;;;;;;;;;;5095926;28;20476;-84
2023/07/08 00:39:41;;;;;;;24.20;22.27;;;;;;;;;;5095483;28;21083;-84
2023/07/08 00:42:13;;;;;;;23.90;22.50;;;;;;;;;;5096082;28;20451;-83
2023/07/08 00:44:41;;;;;;;23.30;22.00;;;;;;;;;;5095367;28;20514;-83
2023/07/08 00:47:10;;;;;;;23.80;22.50;;;;;;;;;;5095560;28;20457;-82
2023/07/08 00:49:40;;;;;;;23.50;21.83;;;;;;;;;;5095293;28;20412;-83
2023/07/08 00:52:22;;;;;;;23.80;22.50;;;;;;;;;;5095419;28;20473;-83
2023/07/08 00:54:50;;;;;;;23.40;21.97;;;;;;;;;;5095357;28;20424;-83
2023/07/08 00:57:18;;;;;;;22.63;21.40;;;;;;;;;;5094940;28;20469;-83
2023/07/08 00:59:47;;;;;;;22.93;21.63;;;;;;;;;;5095109;28;20453;-83
2023/07/08 01:02:17;;;;;;;23.37;21.97;;;;;;;;;;5095549;28;20447;-84
2023/07/08 01:04:45;;;;;;;24.17;22.60;;;;;;;;;;5095542;28;20433;-84
2023/07/08 01:07:13;;;;;;;24.00;22.50;;;;;;;;;;5094661;28;20912;-83
2023/07/08 01:09:42;;;;;;;24.50;23.03;;;;;;;;;;5094826;28;20427;-83
2023/07/08 01:12:12;;;;;;;24.00;22.50;;;;;;;;;;5094885;28;20522;-84
2023/07/08 01:14:40;;;;;;;24.10;22.70;;;;;;;;;;5094805;28;20892;-83
2023/07/08 01:17:07;;;;;;;23.63;22.23;;;;;;;;;;5094173;28;20493;-83
2023/07/08 01:19:34;;;;;;;24.37;22.80;;;;;;;;;;5094496;28;20428;-83
2023/07/08 01:22:03;;;;;;;23.13;21.80;;;;;;;;;;5094982;28;20493;-83
2023/07/08 01:24:31;;;;;;;25.00;23.30;;;;;;;;;;5094746;28;20505;-83
2023/07/08 01:26:58;;;;;;;23.67;22.17;;;;;;;;;;5094005;28;20448;-83
2023/07/08 01:29:25;;;;;;;24.07;22.87;;;;;;;;;;5094531;28;20995;-83
2023/07/08 01:31:52;;;;;;;25.07;23.47;;;;;;;;;;5093826;28;20455;-83
2023/07/08 01:34:19;;;;;;;24.93;23.57;;;;;;;;;;5094141;28;20467;-83
2023/07/08 01:36:49;;;;;;;24.17;22.70;;;;;;;;;;5093963;28;20420;-84
2023/07/08 01:39:20;;;;;;;24.07;22.77;;;;;;;;;;5094567;28;20444;-84
2023/07/08 01:41:47;;;;;;;24.20;22.80;;;;;;;;;;5093599;28;20959;-83
2023/07/08 01:44:21;;;;;;;24.27;22.90;;;;;;;;;;5094013;28;20486;-83
2023/07/08 01:46:48;;;;;;;25.00;23.50;;;;;;;;;;5093676;28;20822;-83
2023/07/08 01:49:15;;;;;;;23.03;21.70;;;;;;;;;;5094659;28;20420;-83
2023/07/08 01:51:42;;;;;;;24.63;23.13;;;;;;;;;;5093802;28;20488;-84
2023/07/08 01:54:09;;;;;;;24.00;22.60;;;;;;;;;;5094561;28;20919;-83
2023/07/08 01:56:38;;;;;;;23.60;22.20;;;;;;;;;;5093760;28;20473;-83
2023/07/08 01:59:05;;;;;;;24.07;22.67;;;;;;;;;;5093838;28;20496;-83
2023/07/08 02:01:32;;;;;;;23.67;21.80;;;;;;;;;;5093658;28;20482;-83
2023/07/08 02:03:59;;;;;;;24.23;22.67;;;;;;;;;;5093867;28;21222;-84
2023/07/08 02:06:25;;;;;;;24.57;23.10;;;;;;;;;;5093312;28;21130;-83
2023/07/08 02:08:54;;;;;;;23.90;22.30;;;;;;;;;;5094166;28;20445;-83
2023/07/08 02:11:21;;;;;;;23.80;22.43;;;;;;;;;;5093470;28;20487;-83
2023/07/08 02:13:50;;;;;;;23.60;22.20;;;;;;;;;;5093178;28;20472;-82
2023/07/08 02:16:17;;;;;;;23.47;22.17;;;;;;;;;;5093330;28;20488;-83
2023/07/08 02:18:44;;;;;;;23.60;22.20;;;;;;;;;;5093811;28;20465;-84
2023/07/08 02:21:12;;;;;;;23.80;22.50;;;;;;;;;;5093616;28;20443;-83
2023/07/08 02:23:39;;;;;;;25.43;23.93;;;;;;;;;;5093530;28;20452;-83
2023/07/08 02:26:07;;;;;;;24.20;22.70;;;;;;;;;;5093149;28;20500;-83
2023/07/08 02:28:34;;;;;;;24.90;23.40;;;;;;;;;;5093650;28;20776;-84
2023/07/08 02:31:04;;;;;;;23.70;22.23;;;;;;;;;;5093813;28;20457;-83
2023/07/08 02:33:32;;;;;;;24.77;22.97;;;;;;;;;;5093969;28;20455;-83
2023/07/08 02:36:00;;;;;;;23.70;22.40;;;;;;;;;;5093200;28;20536;-84
2023/07/08 02:38:27;;;;;;;24.90;23.47;;;;;;;;;;5093928;28;20490;-84
2023/07/08 02:40:54;;;;;;;23.70;22.30;;;;;;;;;;5094083;28;20451;-83
2023/07/08 02:43:21;;;;;;;24.60;23.20;;;;;;;;;;5095959;28;20419;-83
2023/07/08 02:45:51;;;;;;;24.00;22.50;;;;;;;;;;5097018;28;20481;-82
2023/07/08 02:48:20;;;;;;;24.40;22.90;;;;;;;;;;5097236;28;20418;-83
2023/07/08 02:50:47;;;;;;;23.43;22.13;;;;;;;;;;5096654;28;20795;-83
2023/07/08 02:53:14;;;;;;;24.67;23.03;;;;;;;;;;5096420;28;20443;-83
2023/07/08 02:55:42;;;;;;;23.40;22.00;;;;;;;;;;5095710;28;20492;-83
2023/07/08 02:58:09;;;;;;;23.20;21.87;;;;;;;;;;5096697;28;20779;-83
2023/07/08 03:00:37;;;;;;;24.17;22.57;;;;;;;;;;5096569;28;20533;-83
2023/07/08 03:03:04;;;;;;;23.80;22.30;;;;;;;;;;5096970;28;20480;-82
2023/07/08 03:05:33;;;;;;;23.47;22.07;;;;;;;;;;5096337;28;20430;-83
2023/07/08 03:08:01;;;;;;;23.37;21.97;;;;;;;;;;5097207;28;20446;-83
2023/07/08 03:10:29;;;;;;;22.57;20.97;;;;;;;;;;5097066;28;20431;-88
2023/07/08 03:12:56;;;;;;;22.97;21.67;;;;;;;;;;5096764;28;20480;-83
2023/07/08 03:15:23;;;;;;;22.80;21.47;;;;;;;;;;5096043;28;20435;-82
2023/07/08 03:17:50;;;;;;;23.77;22.47;;;;;;;;;;5095438;28;20990;-82
2023/07/08 03:20:17;;;;;;;23.60;22.30;;;;;;;;;;5095872;28;20492;-83
2023/07/08 03:22:46;;;;;;;23.23;21.83;;;;;;;;;;5096563;28;20433;-84
2023/07/08 03:25:13;;;;;;;23.77;22.37;;;;;;;;;;5096867;28;20655;-83
2023/07/08 03:27:40;;;;;;;24.47;22.87;;;;;;;;;;5096064;28;21133;-83
2023/07/08 03:30:07;;;;;;;23.67;22.37;;;;;;;;;;5097207;28;20457;-83
2023/07/08 03:32:34;;;;;;;23.97;22.63;;;;;;;;;;5097089;28;20470;-84
2023/07/08 03:35:02;;;;;;;23.27;21.87;;;;;;;;;;5096505;28;20459;-84
2023/07/08 03:37:29;;;;;;;23.03;21.43;;;;;;;;;;5095489;28;20505;-82
2023/07/08 03:39:57;;;;;;;23.37;22.00;;;;;;;;;;5096569;28;20911;-81
2023/07/08 03:42:24;;;;;;;23.70;22.10;;;;;;;;;;5096020;28;20412;-82
2023/07/08 03:44:51;;;;;;;23.27;21.87;;;;;;;;;;5096428;28;20448;-82
2023/07/08 03:47:18;;;;;;;24.20;22.57;;;;;;;;;;5095206;28;20454;-82
2023/07/08 03:49:45;;;;;;;23.80;22.33;;;;;;;;;;5096200;28;20904;-81
2023/07/08 03:52:16;;;;;;;24.00;22.40;;;;;;;;;;5096458;28;20471;-82
2023/07/08 03:54:43;;;;;;;23.77;22.37;;;;;;;;;;5095716;28;20447;-82
2023/07/08 03:57:11;;;;;;;24.03;21.97;;;;;;;;;;5094071;28;20451;-82
2023/07/08 03:59:38;;;;;;;24.60;23.07;;;;;;;;;;5096279;28;20503;-82
2023/07/08 04:02:05;;;;;;;23.47;22.17;;;;;;;;;;5096169;28;20443;-81
2023/07/08 04:04:32;;;;;;;24.63;22.80;;;;;;;;;;5096014;28;21012;-82
2023/07/08 04:06:59;;;;;;;24.17;22.60;;;;;;;;;;5094981;28;20431;-82
2023/07/08 04:09:26;;;;;;;23.27;21.97;;;;;;;;;;5095894;28;20469;-82
2023/07/08 04:11:54;;;;;;;23.70;22.10;;;;;;;;;;5095715;28;20505;-81
2023/07/08 04:14:22;;;;;;;24.73;23.10;;;;;;;;;;5095631;28;20469;-82
2023/07/08 04:16:52;;;;;;;25.00;23.40;;;;;;;;;;5094717;28;20524;-82
2023/07/08 04:19:19;;;;;;;25.07;23.27;;;;;;;;;;5095772;28;20469;-82
2023/07/08 04:21:47;;;;;;;23.63;22.33;;;;;;;;;;5095553;28;20474;-80
2023/07/08 04:24:15;;;;;;;24.00;22.60;;;;;;;;;;5096055;28;20457;-81
2023/07/08 04:26:42;;;;;;;24.77;23.33;;;;;;;;;;5094439;28;20468;-80
2023/07/08 04:29:12;;;;;;;23.67;22.37;;;;;;;;;;5095626;28;20477;-80
2023/07/08 04:31:41;;;;;;;24.53;23.13;;;;;;;;;;5095386;28;20450;-80
2023/07/08 04:34:09;;;;;;;23.80;22.40;;;;;;;;;;5095002;28;21219;-80
2023/07/08 04:36:36;;;;;;;24.43;23.10;;;;;;;;;;5094472;28;20499;-80
2023/07/08 04:39:04;;;;;;;24.70;23.17;;;;;;;;;;5095687;28;20403;-79
2023/07/08 04:41:31;;;;;;;24.20;22.63;;;;;;;;;;5094860;28;20459;-80
2023/07/08 04:44:02;;;;;;;24.63;23.13;;;;;;;;;;5095004;28;20431;-81
2023/07/08 04:46:34;;;;;;;23.87;22.37;;;;;;;;;;5094412;28;20449;-80
2023/07/08 04:49:05;;;;;;;24.30;22.80;;;;;;;;;;5095320;28;20418;-80
2023/07/08 04:51:32;;;;;;;24.83;23.43;;;;;;;;;;5094660;28;20462;-78
2023/07/08 04:53:59;;;;;;;24.53;23.13;;;;;;;;;;5095728;28;20480;-80
2023/07/08 04:56:27;;;;;;;24.30;22.83;;;;;;;;;;5094177;28;20431;-79
2023/07/08 04:58:54;;;;;;;24.03;22.53;;;;;;;;;;5094933;28;20923;-80
2023/07/08 05:01:21;;;;;;;24.77;22.80;;;;;;;;;;5090397;28;21632;-79
2023/07/08 05:03:50;;;;;;;24.20;22.80;;;;;;;;;;5095449;28;20463;-80
2023/07/08 05:06:21;;;;;;;23.47;22.17;;;;;;;;;;5108443;28;20539;-79
2023/07/08 05:08:49;;;;;;;23.77;22.40;;;;;;;;;;5107082;28;20464;-82
2023/07/08 05:11:16;;;;;;;24.20;22.80;;;;;;;;;;5102868;28;20457;-81
2023/07/08 05:13:43;;;;;;;24.77;23.37;;;;;;;;;;5096085;28;20464;-81
2023/07/08 05:16:10;;;;;;;24.60;22.57;;;;;;;;;;5095368;28;20513;-82
2023/07/08 05:18:37;;;;;;;24.67;22.63;;;;;;;;;;5100112;28;20473;-82
2023/07/08 05:21:05;;;;;;;23.53;22.23;;;;;;;;;;5098075;28;20447;-81
2023/07/08 05:23:33;;;;;;;24.30;22.63;;;;;;;;;;5095749;28;20445;-81
2023/07/08 05:26:01;;;;;;;22.97;21.57;;;;;;;;;;5095676;28;21225;-81
2023/07/08 05:28:28;;;;;;;22.97;21.37;;;;;;;;;;5095092;28;20472;-80
2023/07/08 05:30:55;;;;;;;23.87;22.47;;;;;;;;;;5096026;28;20496;-80
2023/07/08 05:33:22;;;;;;;23.63;22.13;;;;;;;;;;5095287;28;20430;-80
2023/07/08 05:35:49;;;;;;;23.73;22.23;;;;;;;;;;5095515;28;20437;-81
2023/07/08 05:38:16;;;;;;;22.43;21.07;;;;;;;;;;5095135;28;20792;-80
2023/07/08 05:40:44;;;;;;;22.73;21.43;;;;;;;;;;5095602;28;20515;-81
2023/07/08 05:43:11;;;;;;;23.10;21.63;;;;;;;;;;5096206;28;20416;-81
2023/07/08 05:45:38;;;;;;;22.70;21.30;;;;;;;;;;5094695;28;20440;-80
2023/07/08 05:48:06;;;;;;;23.07;21.60;;;;;;;;;;5094524;28;20460;-81
2023/07/08 05:50:33;;;;;;;22.40;21.00;;;;;;;;;;5095643;28;20444;-81
2023/07/08 05:53:00;;;;;;;22.67;21.10;;;;;;;;;;5096111;28;20419;-81
2023/07/08 05:55:27;;;;;;;22.50;20.90;;;;;;;;;;5095261;28;20481;-81
2023/07/08 05:57:55;;;;;;;23.13;21.80;;;;;;;;;;5094627;28;20752;-81
2023/07/08 06:00:22;;;;;;;22.27;20.77;;;;;;;;;;5095558;28;20473;-81
2023/07/08 06:02:49;;;;;;;23.17;21.77;;;;;;;;;;5095131;28;20435;-80
2023/07/08 06:05:16;;;;;;;23.07;21.57;;;;;;;;;;5096045;28;20411;-81
2023/07/08 06:07:43;;;;;;;22.93;21.53;;;;;;;;;;5094022;28;20495;-81
2023/07/08 06:10:10;;;;;;;22.83;21.47;;;;;;;;;;5093259;28;20443;-80
2023/07/08 06:12:38;;;;;;;23.77;22.30;;;;;;;;;;5092906;28;20427;-81
2023/07/08 06:15:07;;;;;;;23.83;22.23;;;;;;;;;;5093229;28;20548;-80
2023/07/08 06:17:34;;;;;;;23.30;21.80;;;;;;;;;;5092861;28;20719;-80
2023/07/08 06:20:01;;;;;;;24.33;22.63;;;;;;;;;;5095798;28;20457;-80
2023/07/08 06:22:28;;;;;;;23.20;21.60;;;;;;;;;;5097350;28;20445;-79
2023/07/08 06:24:55;;;;;;;23.20;21.80;;;;;;;;;;5099897;28;20449;-81
2023/07/08 06:27:23;;;;;;;23.63;22.20;;;;;;;;;;5098937;28;20510;-79
2023/07/08 06:29:50;;;;;;;24.23;22.83;;;;;;;;;;5096898;28;20476;-80
2023/07/08 06:32:19;;;;;;;23.90;22.10;;;;;;;;;;5097930;28;20923;-79
2023/07/08 06:34:46;;;;;;;24.27;22.63;;;;;;;;;;5097622;28;20514;-80
2023/07/08 06:37:13;;;;;;;23.80;22.20;;;;;;;;;;5097015;28;20490;-80
2023/07/08 06:39:40;;;;;;;23.00;21.60;;;;;;;;;;5097794;28;20473;-79
2023/07/08 06:42:07;;;;;;;22.90;21.40;;;;;;;;;;5097138;28;20435;-79
2023/07/08 06:44:34;;;;;;;23.00;21.53;;;;;;;;;;5096562;28;20484;-80
2023/07/08 06:47:01;;;;;;;22.90;21.50;;;;;;;;;;5096345;28;20416;-81
2023/07/08 06:49:30;;;;;;;23.67;22.27;;;;;;;;;;5096060;28;20471;-79
2023/07/08 06:51:59;;;;;;;23.17;21.73;;;;;;;;;;5095736;28;21272;-80
2023/07/08 06:54:27;;;;;;;24.33;22.73;;;;;;;;;;5097377;28;20516;-80
2023/07/08 06:56:54;;;;;;;23.37;21.80;;;;;;;;;;5096993;28;20525;-83
2023/07/08 06:59:21;;;;;;;24.33;22.70;;;;;;;;;;5098045;28;20937;-81
2023/07/08 07:01:48;;;;;;;24.33;22.40;;;;;;;;;;5096008;28;20457;-80
2023/07/08 07:04:15;;;;;;;24.00;22.40;;;;;;;;;;5095525;28;20451;-81
2023/07/08 07:06:44;;;;;;;24.30;22.80;;;;;;;;;;5095515;28;20445;-79
2023/07/08 07:09:11;;;;;;;23.33;21.93;;;;;;;;;;5095936;28;20452;-80
2023/07/08 07:11:38;;;;;;;24.20;22.50;;;;;;;;;;5096017;28;20451;-80
2023/07/08 07:14:05;;;;;;;24.50;22.90;;;;;;;;;;5095154;28;20988;-80
2023/07/08 07:16:31;;;;;;;24.00;22.40;;;;;;;;;;5095120;28;20477;-79
2023/07/08 07:18:58;;;;;;;24.40;22.60;;;;;;;;;;5095636;28;20424;-80
2023/07/08 07:21:25;;;;;;;25.33;23.33;;;;;;;;;;5095310;28;20954;-81
2023/07/08 07:23:54;;;;;;;24.43;22.90;;;;;;;;;;5095068;28;20412;-82
2023/07/08 07:26:21;;;;;;;26.40;24.40;;;;;;;;;;5094918;28;20430;-82
2023/07/08 07:28:48;;;;;;;23.40;22.00;;;;;;;;;;5095173;28;20452;-81
2023/07/08 07:31:15;;;;;;;24.83;23.23;;;;;;;;;;5094722;28;20500;-81
2023/07/08 07:33:42;;;;;;;25.80;24.10;;;;;;;;;;5094529;28;20403;-81
2023/07/08 07:36:09;;;;;;;25.60;24.20;;;;;;;;;;5093825;28;21268;-80
2023/07/08 07:38:36;;;;;;;24.30;22.90;;;;;;;;;;5095181;28;20449;-85
2023/07/08 07:41:06;;;;;;;24.23;22.77;;;;;;;;;;5094849;28;20503;-80
2023/07/08 07:43:33;;;;;;;23.97;22.60;;;;;;;;;;5094809;28;20522;-79
2023/07/08 07:46:00;;;;;;;24.10;22.60;;;;;;;;;;5093736;28;20457;-80
2023/07/08 07:48:27;;;;;;;24.50;23.00;;;;;;;;;;5080831;28;20446;-82
2023/07/08 07:50:55;;;;;;;25.50;23.90;;;;;;;;;;5075119;28;20894;-81
2023/07/08 07:53:22;;;;;;;24.70;23.00;;;;;;;;;;5076313;28;20412;-80
2023/07/08 07:55:49;;;;;;;24.67;23.10;;;;;;;;;;5075245;28;20460;-82
2023/07/08 07:58:17;;;;;;;25.53;23.93;;;;;;;;;;5075058;28;20444;-81
2023/07/08 08:00:44;;;;;;;24.80;23.20;;;;;;;;;;5075859;28;20473;-82
2023/07/08 08:03:12;;;;;;;23.60;22.20;;;;;;;;;;5075193;28;20424;-81
2023/07/08 08:05:39;;;;;;;23.63;21.93;;;;;;;;;;5074720;28;20421;-81
2023/07/08 08:08:06;;;;;;;24.93;23.33;;;;;;;;;;5075143;28;20543;-82
2023/07/08 08:10:33;;;;;;;25.03;23.30;;;;;;;;;;5075196;28;20454;-80
2023/07/08 08:13:00;;;;;;;24.87;23.10;;;;;;;;;;5075033;28;20979;-81
2023/07/08 08:15:28;;;;;;;25.10;23.50;;;;;;;;;;5074647;28;20452;-82
2023/07/08 08:17:56;;;;;;;24.90;23.27;;;;;;;;;;5074163;28;20477;-82
2023/07/08 08:20:23;;;;;;;25.27;23.63;;;;;;;;;;5090525;28;21217;-82
2023/07/08 08:22:51;;;;;;;24.50;22.90;;;;;;;;;;5095312;28;20424;-82
2023/07/08 08:25:19;;;;;;;24.93;23.20;;;;;;;;;;5095270;28;20429;-82
2023/07/08 08:27:46;;;;;;;25.13;23.27;;;;;;;;;;5094240;28;20439;-79
2023/07/08 08:30:13;;;;;;;25.57;23.87;;;;;;;;;;5095569;28;20427;-80
2023/07/08 08:32:41;;;;;;;25.40;23.70;;;;;;;;;;5080222;28;20425;-79
2023/07/08 08:35:09;;;;;;;24.90;23.20;;;;;;;;;;5074948;28;20489;-80
2023/07/08 08:37:36;;;;;;;24.53;22.93;;;;;;;;;;5074013;28;20455;-80
2023/07/08 08:40:03;;;;;;;25.40;23.70;;;;;;;;;;5074909;28;20427;-80
2023/07/08 08:42:32;;;;;;;25.43;23.83;;;;;;;;;;5074151;28;20499;-80
2023/07/08 08:45:02;;;;;;;26.20;24.30;;;;;;;;;;5074863;28;20471;-80
2023/07/08 08:47:33;;;;;;;26.83;24.83;;;;;;;;;;5074865;28;20428;-81
2023/07/08 08:50:11;;;;;;;25.57;23.97;;;;;;;;;;5074412;28;20418;-81
2023/07/08 08:52:39;;;;;;;25.70;24.00;;;;;;;;;;5075199;28;20401;-80
2023/07/08 08:55:09;;;;;;;27.00;25.20;;;;;;;;;;5074720;28;21048;-84
2023/07/08 08:57:39;;;;;;;25.03;23.43;;;;;;;;;;5074102;28;20830;-81
2023/07/08 09:00:06;;;;;;;27.77;25.97;;;;;;;;;;5074354;28;20445;-81
2023/07/08 09:02:35;;;;;;;26.83;24.90;;;;;;;;;;5074390;28;20478;-81
2023/07/08 09:05:07;;;;;;;26.10;24.40;;;;;;;;;;5074076;28;20499;-80
2023/07/08 09:07:37;;;;;;;26.90;25.10;;;;;;;;;;5073645;28;20448;-80
2023/07/08 09:10:06;;;;;;;25.43;23.73;;;;;;;;;;5073737;28;20475;-79
2023/07/08 09:12:34;;;;;;;27.03;25.23;;;;;;;;;;5074486;28;20471;-80
2023/07/08 09:15:02;;;;;;;26.30;24.40;;;;;;;;;;5073755;28;21021;-80
2023/07/08 09:17:32;;;;;;;25.70;24.00;;;;;;;;;;5072630;28;20428;-80
2023/07/08 09:20:01;;;;;;;26.57;24.87;;;;;;;;;;5093694;28;20448;-79
2023/07/08 09:22:33;;;;;;;26.60;24.40;;;;;;;;;;5094083;28;20408;-79
2023/07/08 09:25:02;;;;;;;25.00;23.30;;;;;;;;;;5094299;28;20919;-79
2023/07/08 09:27:29;;;;;;;25.53;22.90;;;;;;;;;;5093081;28;20419;-80
2023/07/08 09:29:57;;;;;;;26.17;24.30;;;;;;;;;;5094034;28;20443;-81
2023/07/08 09:32:25;;;;;;;25.93;24.13;;;;;;;;;;5093597;28;20451;-80
2023/07/08 09:34:54;;;;;;;26.70;24.87;;;;;;;;;;5094246;28;20481;-79
2023/07/08 09:37:23;;;;;;;26.97;24.97;;;;;;;;;;5093312;28;20497;-80
2023/07/08 09:39:52;;;;;;;26.63;24.73;;;;;;;;;;5093720;28;20502;-80
2023/07/08 09:42:20;;;;;;;25.87;24.17;;;;;;;;;;5093409;28;20431;-79
2023/07/08 09:44:47;;;;;;;26.30;24.40;;;;;;;;;;5096904;28;20403;-86
2023/07/08 09:47:22;;;;;;;26.80;25.00;;;;;;;;;;5095211;28;21259;-80
2023/07/08 09:49:49;;;;;;;26.07;24.27;;;;;;;;;;5093453;28;20412;-80
2023/07/08 09:52:16;;;;;;;25.80;24.10;;;;;;;;;;5093788;28;20451;-79
2023/07/08 09:54:43;;;;;;;26.10;24.40;;;;;;;;;;5092493;28;20522;-80
2023/07/08 09:57:14;;;;;;;26.90;25.20;;;;;;;;;;5093659;28;20993;-80
2023/07/08 09:59:45;;;;;;;26.73;24.93;;;;;;;;;;5100636;28;20425;-81
2023/07/08 10:02:26;;;;;;;28.73;26.40;;;;;;;;;;5110064;28;21027;-78
2023/07/08 10:04:54;;;;;;;27.97;26.17;;;;;;;;;;5111202;28;20423;-79
2023/07/08 10:07:21;;;;;;;27.77;25.97;;;;;;;;;;5100718;28;20921;-81
2023/07/08 10:09:49;;;;;;;27.53;25.40;;;;;;;;;;5094625;28;20453;-80
2023/07/08 10:12:18;;;;;;;27.40;25.70;;;;;;;;;;5095221;28;20509;-80
2023/07/08 10:14:47;;;;;;;28.03;26.13;;;;;;;;;;5094980;28;20448;-80
2023/07/08 10:17:16;;;;;;;26.70;25.00;;;;;;;;;;5093972;28;20459;-81
2023/07/08 10:19:43;;;;;;;27.10;25.40;;;;;;;;;;5094326;28;20412;-80
2023/07/08 10:22:19;;;;;;;28.53;26.80;;;;;;;;;;5093815;28;20530;-80
2023/07/08 10:24:54;;;;;;;30.10;28.00;;;;;;;;;;5094614;28;20477;-81
2023/07/08 10:27:27;;;;;;;28.60;26.70;;;;;;;;;;5093790;28;20412;-79
2023/07/08 10:29:55;;;;;;;27.70;26.00;;;;;;;;;;5094751;28;20999;-80
2023/07/08 10:32:28;;;;;;;28.40;26.60;;;;;;;;;;5093768;28;20485;-81
2023/07/08 10:35:00;;;;;;;27.07;25.07;;;;;;;;;;5093638;28;20437;-81
2023/07/08 10:37:34;;;;;;;28.00;26.10;;;;;;;;;;5092908;28;20900;-80
2023/07/08 10:40:15;;;;;;;26.27;24.60;;;;;;;;;;5094041;28;20483;-81
2023/07/08 10:42:54;;;;;;;27.30;25.47;;;;;;;;;;5093348;28;20428;-80
2023/07/08 10:45:25;;;;;;;27.43;25.73;;;;;;;;;;5091206;28;20423;-81
2023/07/08 10:48:02;;;;;;;25.97;24.37;;;;;;;;;;5092062;28;20439;-81
2023/07/08 10:50:38;;;;;;;26.80;25.10;;;;;;;;;;5093730;28;20480;-81
2023/07/08 10:53:13;;;;;;;26.10;24.20;;;;;;;;;;5093520;28;20426;-80
2023/07/08 10:55:46;;;;;;;26.00;24.30;;;;;;;;;;5093031;28;20534;-79
2023/07/08 10:58:26;;;;;;;27.20;25.40;;;;;;;;;;5093222;28;20426;-80
2023/07/08 11:00:59;;;;;;;27.13;25.43;;;;;;;;;;5093238;28;20463;-79
2023/07/08 11:03:36;;;;;;;26.57;24.83;;;;;;;;;;5093550;28;20433;-80
2023/07/08 11:06:08;;;;;;;26.27;24.57;;;;;;;;;;5094425;28;20510;-81
2023/07/08 11:08:39;;;;;;;26.40;24.60;;;;;;;;;;5097027;28;20406;-87
2023/07/08 11:11:08;;;;;;;27.40;25.53;;;;;;;;;;5096981;28;20846;-81
2023/07/08 11:13:37;;;;;;;26.23;24.50;;;;;;;;;;5096854;28;20444;-81
2023/07/08 11:16:11;;;;;;;27.00;25.30;;;;;;;;;;5096111;28;20947;-81
2023/07/08 11:18:41;;;;;;;26.33;24.60;;;;;;;;;;5096430;28;20431;-80
2023/07/08 11:21:11;;;;;;;27.27;25.47;;;;;;;;;;5097382;28;20435;-80
2023/07/08 11:23:41;;;;;;;27.97;26.00;;;;;;;;;;5097181;28;20461;-81
2023/07/08 11:26:16;;;;;;;27.40;25.60;;;;;;;;;;5096455;28;20445;-81
2023/07/08 11:28:44;;;;;;;26.60;24.80;;;;;;;;;;5096285;28;20448;-80
2023/07/08 11:31:12;;;;;;;25.77;24.17;;;;;;;;;;5096810;28;20472;-77
2023/07/08 11:33:40;;;;;;;26.63;24.90;;;;;;;;;;5096669;28;20452;-81
2023/07/08 11:36:08;;;;;;;27.20;25.40;;;;;;;;;;5096136;28;20455;-81
2023/07/08 11:38:35;;;;;;;27.23;25.47;;;;;;;;;;5097009;28;20423;-81
2023/07/08 11:41:03;;;;;;;26.80;24.80;;;;;;;;;;5096829;28;20495;-82
2023/07/08 11:43:41;;;;;;;27.07;25.27;;;;;;;;;;5096471;28;20414;-82
2023/07/08 11:46:14;;;;;;;26.97;24.97;;;;;;;;;;5095833;28;20465;-82
2023/07/08 11:48:43;;;;;;;27.00;25.30;;;;;;;;;;5096516;28;20916;-81
2023/07/08 11:51:13;;;;;;;26.20;24.53;;;;;;;;;;5096618;28;20557;-81
2023/07/08 11:53:49;;;;;;;26.87;24.63;;;;;;;;;;5096190;28;20523;-81
2023/07/08 11:56:26;;;;;;;26.63;24.87;;;;;;;;;;5095040;28;21140;-82
2023/07/08 11:58:58;;;;;;;26.90;25.17;;;;;;;;;;5095383;28;20437;-81
2023/07/08 12:01:29;;;;;;;27.80;25.90;;;;;;;;;;5095920;28;20489;-81
2023/07/08 12:04:00;;;;;;;27.70;25.80;;;;;;;;;;5095939;28;20495;-82
2023/07/08 12:06:44;;;;;;;27.60;25.73;;;;;;;;;;5095160;28;20424;-82
2023/07/08 12:09:22;;;;;;;26.70;24.90;;;;;;;;;;5095410;28;20432;-82
2023/07/08 12:11:51;;;;;;;27.90;26.00;;;;;;;;;;5095074;28;20967;-81
2023/07/08 12:14:18;;;;;;;26.77;24.97;;;;;;;;;;5095860;28;20432;-81
2023/07/08 12:16:47;;;;;;;26.70;25.00;;;;;;;;;;5094036;28;20467;-82
2023/07/08 12:19:17;;;;;;;26.90;25.20;;;;;;;;;;5095341;28;20435;-81
2023/07/08 12:21:44;;;;;;;27.20;25.33;;;;;;;;;;5095499;28;20443;-81
2023/07/08 12:24:13;;;;;;;28.17;26.30;;;;;;;;;;5095785;28;20428;-83
2023/07/08 12:26:41;;;;;;;26.73;24.73;;;;;;;;;;5094418;28;20420;-81
2023/07/08 12:29:09;;;;;;;27.30;25.50;;;;;;;;;;5095729;28;20914;-82
2023/07/08 12:31:36;;;;;;;27.53;25.63;;;;;;;;;;5095332;28;20439;-82
2023/07/08 12:34:06;;;;;;;27.73;25.93;;;;;;;;;;5097024;28;20449;-82
2023/07/08 12:36:35;;;;;;;28.00;26.10;;;;;;;;;;5095370;28;20443;-82
2023/07/08 12:39:06;;;;;;;28.27;26.47;;;;;;;;;;5095700;28;20498;-82
2023/07/08 12:41:34;;;;;;;28.70;26.80;;;;;;;;;;5095164;28;21030;-82
2023/07/08 12:44:02;;;;;;;28.03;26.03;;;;;;;;;;5094529;28;20441;-83
2023/07/08 12:46:29;;;;;;;28.23;26.17;;;;;;;;;;5093670;28;20449;-81
2023/07/08 12:48:56;;;;;;;27.70;25.90;;;;;;;;;;5094221;28;20956;-83
2023/07/08 12:51:26;;;;;;;28.60;26.60;;;;;;;;;;5094189;28;20435;-81
2023/07/08 12:53:53;;;;;;;28.10;26.20;;;;;;;;;;5093956;28;20420;-80
2023/07/08 12:56:22;;;;;;;27.90;26.10;;;;;;;;;;5093426;28;20509;-80
2023/07/08 12:58:50;;;;;;;26.60;24.90;;;;;;;;;;5094126;28;20423;-81
2023/07/08 13:01:20;;;;;;;27.77;25.87;;;;;;;;;;5093611;28;20885;-81
2023/07/08 13:03:48;;;;;;;28.10;26.20;;;;;;;;;;5094168;28;20453;-80
2023/07/08 13:06:17;;;;;;;27.63;25.83;;;;;;;;;;5093368;28;20502;-79
2023/07/08 13:08:46;;;;;;;27.90;26.10;;;;;;;;;;5094211;28;20506;-80
2023/07/08 13:11:15;;;;;;;28.10;26.10;;;;;;;;;;5094608;28;20542;-81
2023/07/08 13:13:46;;;;;;;28.60;26.70;;;;;;;;;;5097003;28;20911;-80
2023/07/08 13:16:14;;;;;;;27.80;25.87;;;;;;;;;;5097073;28;20514;-79
2023/07/08 13:18:41;;;;;;;27.70;25.90;;;;;;;;;;5098263;28;20453;-83
2023/07/08 13:21:12;;;;;;;27.63;25.63;;;;;;;;;;5096748;28;20444;-81
2023/07/08 13:23:40;;;;;;;27.70;25.90;;;;;;;;;;5097115;28;20491;-81
2023/07/08 13:26:15;;;;;;;27.73;26.00;;;;;;;;;;5093100;28;20441;-80
2023/07/08 13:28:44;;;;;;;26.37;24.70;;;;;;;;;;5092782;28;20434;-80
2023/07/08 13:31:16;;;;;;;27.13;25.43;;;;;;;;;;5093549;28;20847;-81
2023/07/08 13:33:47;;;;;;;28.07;25.90;;;;;;;;;;5093421;28;20741;-78
2023/07/08 13:36:14;;;;;;;27.83;25.93;;;;;;;;;;5092647;28;20452;-80
2023/07/08 13:38:42;;;;;;;27.97;26.07;;;;;;;;;;5093105;28;20424;-80
2023/07/08 13:41:09;;;;;;;28.50;26.70;;;;;;;;;;5093404;28;20463;-79
2023/07/08 13:43:39;;;;;;;28.13;26.23;;;;;;;;;;5093432;28;20420;-79
2023/07/08 13:46:07;;;;;;;28.90;27.00;;;;;;;;;;5092750;28;20480;-80
2023/07/08 13:48:37;;;;;;;28.90;27.00;;;;;;;;;;5092045;28;20477;-79
2023/07/08 13:51:05;;;;;;;28.03;26.13;;;;;;;;;;5093120;28;20880;-80
2023/07/08 13:53:42;;;;;;;27.77;25.97;;;;;;;;;;5093263;28;20513;-80
2023/07/08 13:56:13;;;;;;;28.07;26.07;;;;;;;;;;5092514;28;20801;-80
2023/07/08 13:58:43;;;;;;;27.20;25.30;;;;;;;;;;5093233;28;20458;-79
2023/07/08 14:01:16;;;;;;;27.87;25.93;;;;;;;;;;5092721;28;20510;-81
2023/07/08 14:03:43;;;;;;;27.93;25.90;;;;;;;;;;5079306;28;20490;-81
2023/07/08 14:06:14;;;;;;;27.97;26.10;;;;;;;;;;5092634;28;20423;-81
2023/07/08 14:08:41;;;;;;;28.33;26.23;;;;;;;;;;5093346;28;20441;-81
2023/07/08 14:11:08;;;;;;;29.30;27.30;;;;;;;;;;5092832;28;20519;-80
2023/07/08 14:13:35;;;;;;;29.03;27.13;;;;;;;;;;5093249;28;20807;-81
2023/07/08 14:16:05;;;;;;;27.27;25.43;;;;;;;;;;5093141;28;20460;-80
2023/07/08 14:18:32;;;;;;;27.50;25.50;;;;;;;;;;5092716;28;21034;-81
2023/07/08 14:20:59;;;;;;;27.10;25.33;;;;;;;;;;5093383;28;20488;-81
2023/07/08 14:23:26;;;;;;;27.60;25.90;;;;;;;;;;5093201;28;20502;-81